createdAt,value
2022-09-02T06:14:19.782Z,13.12
2022-09-02T06:24:19.869Z,13.43
2022-09-02T06:34:19.912Z,13.60
2022-09-02T06:44:19.929Z,13.91
2022-09-02T06:54:19.967Z,14.24
2022-09-02T07:04:19.862Z,14.80
2022-09-02T07:14:19.963Z,15.12
2022-09-02T07:24:19.937Z,15.57
2022-09-02T07:34:19.970Z,16.09
2022-09-02T07:44:20.034Z,16.48
2022-09-02T07:54:19.872Z,16.84
2022-09-02T08:04:19.790Z,16.99
2022-09-02T08:14:20.011Z,17.53
2022-09-02T08:24:19.984Z,18.06
2022-09-02T08:34:20.051Z,18.11
2022-09-02T08:44:20.171Z,18.71
2022-09-02T08:54:20.341Z,18.76
2022-09-02T09:04:20.432Z,19.27
2022-09-02T09:14:20.359Z,19.73
2022-09-02T09:24:20.359Z,20.03
2022-09-02T09:34:20.342Z,20.22
2022-09-02T09:44:20.511Z,20.43
2022-09-02T09:54:20.402Z,20.64
2022-09-02T10:04:41.882Z,20.87
2022-09-02T10:14:20.391Z,21.36
2022-09-02T10:24:20.421Z,21.37
2022-09-02T10:34:20.491Z,21.98
2022-09-02T10:44:20.426Z,20.99
2022-09-02T10:54:20.343Z,21.85
2022-09-02T11:04:25.075Z,22.23
2022-09-02T11:14:21.114Z,22.31
2022-09-02T11:24:20.291Z,22.19
2022-09-02T11:34:20.311Z,22.64
2022-09-02T11:44:20.423Z,22.85
2022-09-02T11:54:20.381Z,22.28
2022-09-02T12:04:58.699Z,22.96
2022-09-02T12:14:20.470Z,22.34
2022-09-02T12:24:20.387Z,22.90
2022-09-02T12:34:20.498Z,23.39
2022-09-02T12:44:20.487Z,23.61
2022-09-02T12:54:20.371Z,23.23
2022-09-02T13:04:20.461Z,23.30
2022-09-02T13:14:20.502Z,22.27
2022-09-02T13:24:20.399Z,22.22
2022-09-02T13:34:20.448Z,22.21
2022-09-02T13:44:20.622Z,23.25
2022-09-02T13:54:23.157Z,22.29
2022-09-02T14:04:20.630Z,23.06
2022-09-02T14:14:20.709Z,22.50
2022-09-02T14:24:20.750Z,22.67
2022-09-02T14:34:20.638Z,22.41
2022-09-02T14:44:20.762Z,23.20
2022-09-02T14:54:20.571Z,23.06
2022-09-02T15:04:20.654Z,22.90
2022-09-02T15:14:20.591Z,22.86
2022-09-02T15:24:20.701Z,22.46
2022-09-02T15:34:20.926Z,22.48
2022-09-02T15:44:20.898Z,22.76
2022-09-02T15:54:20.950Z,22.54
2022-09-02T16:04:21.007Z,22.75
2022-09-02T16:14:21.289Z,22.33
2022-09-02T16:24:21.019Z,22.32
2022-09-02T16:34:20.901Z,22.34
2022-09-02T16:44:21.112Z,22.04
2022-09-02T16:54:30.791Z,21.86
2022-09-02T17:04:21.035Z,21.69
2022-09-02T17:14:20.879Z,21.49
2022-09-02T17:24:20.889Z,21.06
2022-09-02T17:34:20.939Z,20.77
2022-09-02T17:44:20.967Z,20.57
2022-09-02T17:54:20.925Z,20.38
2022-09-02T18:04:20.975Z,19.91
2022-09-02T18:14:21.057Z,19.87
2022-09-02T18:24:21.138Z,19.51
2022-09-02T18:34:21.286Z,19.24
2022-09-02T18:44:21.472Z,19.05
2022-09-02T18:54:21.554Z,18.97
2022-09-02T19:04:24.223Z,18.56
2022-09-02T19:14:21.746Z,18.22
